Time;durP1;ratioP1;P1;durP2;ratioP2;P2;SDS_P1;SDS_P2;PMS_P1;PMS_P2;Temp;Humidity;BMP_temperature;BMP_pressure;BME280_temperature;BME280_humidity;BME280_pressure;Samples;Min_cycle;Max_cycle;Signal;HPM_P1;HPM_P2
2023/10/20 00:00:50;;;;;;;0.00;0.00;;;5.70;100.00;;;;;;4964510;28;20066;-69
2023/10/20 00:03:17;;;;;;;0.00;0.00;;;5.70;100.00;;;;;;4961950;28;20146;-69
2023/10/20 00:05:44;;;;;;;0.00;0.00;;;5.70;100.00;;;;;;4945275;28;20332;-69
2023/10/20 00:08:11;;;;;;;0.00;0.00;;;5.70;100.00;;;;;;4960886;28;20097;-69
2023/10/20 00:10:39;;;;;;;0.00;0.00;;;5.70;100.00;;;;;;4960519;28;20361;-69
2023/10/20 00:13:06;;;;;;;0.00;0.00;;;5.60;100.00;;;;;;4943049;28;20523;-69
2023/10/20 00:15:34;;;;;;;0.00;0.00;;;5.70;100.00;;;;;;4943985;28;20062;-69
2023/10/20 00:18:03;;;;;;;0.00;0.00;;;5.60;100.00;;;;;;4960877;28;20054;-69
2023/10/20 00:20:29;;;;;;;0.00;0.00;;;5.60;100.00;;;;;;4957144;28;20054;-69
2023/10/20 00:22:56;;;;;;;0.00;0.00;;;5.60;100.00;;;;;;4954318;28;20476;-69
2023/10/20 00:25:23;;;;;;;0.00;0.00;;;5.60;100.00;;;;;;4960557;28;20168;-69
2023/10/20 00:27:51;;;;;;;0.00;0.00;;;5.60;100.00;;;;;;4959914;28;20133;-69
2023/10/20 00:30:17;;;;;;;0.00;0.00;;;5.60;100.00;;;;;;4961248;28;20134;-69
2023/10/20 00:32:45;;;;;;;0.00;0.00;;;5.60;100.00;;;;;;4943945;28;20154;-69
2023/10/20 00:35:13;;;;;;;0.00;0.00;;;5.60;100.00;;;;;;4960234;28;20415;-69
2023/10/20 00:37:41;;;;;;;0.00;0.00;;;5.60;100.00;;;;;;4959393;28;20496;-69
2023/10/20 00:40:09;;;;;;;0.00;0.00;;;5.50;100.00;;;;;;4943664;28;20493;-69
2023/10/20 00:42:37;;;;;;;0.00;0.00;;;5.50;100.00;;;;;;4960688;28;20567;-69
2023/10/20 00:45:05;;;;;;;0.00;0.00;;;5.50;100.00;;;;;;4960377;28;20056;-69
2023/10/20 00:47:33;;;;;;;0.00;0.00;;;5.50;100.00;;;;;;4959233;28;20050;-69
2023/10/20 00:50:00;;;;;;;0.00;0.00;;;5.50;100.00;;;;;;4958605;28;20053;-69
2023/10/20 00:52:29;;;;;;;0.00;0.00;;;5.50;100.00;;;;;;4956039;28;20074;-69
2023/10/20 00:54:58;;;;;;;0.00;0.00;;;5.50;100.00;;;;;;4960316;28;20134;-69
2023/10/20 00:57:26;;;;;;;0.00;0.00;;;5.50;100.00;;;;;;4960842;28;20134;-69
2023/10/20 00:59:53;;;;;;;0.00;0.00;;;5.50;100.00;;;;;;4962454;28;20728;-69
2023/10/20 01:02:20;;;;;;;0.00;0.00;;;5.50;100.00;;;;;;4963445;28;20121;-69
2023/10/20 01:04:48;;;;;;;0.00;0.00;;;5.40;100.00;;;;;;4962435;28;20070;-69
2023/10/20 01:07:15;;;;;;;0.65;0.65;;;5.40;100.00;;;;;;4962776;28;20162;-69
2023/10/20 01:09:42;;;;;;;0.00;0.00;;;5.40;100.00;;;;;;4963131;28;20051;-69
2023/10/20 01:12:09;;;;;;;1.55;1.30;;;5.40;100.00;;;;;;4962847;28;20047;-69
2023/10/20 01:14:37;;;;;;;0.00;0.00;;;5.40;100.00;;;;;;4949373;28;20076;-69
2023/10/20 01:17:04;;;;;;;0.00;0.00;;;5.40;100.00;;;;;;4962723;28;20799;-69
2023/10/20 01:19:32;;;;;;;0.00;0.00;;;5.40;100.00;;;;;;4966207;28;20157;-69
2023/10/20 01:21:59;;;;;;;0.30;0.30;;;5.40;100.00;;;;;;4962204;28;20053;-69
2023/10/20 01:24:26;;;;;;;0.00;0.00;;;5.40;100.00;;;;;;4963033;28;20055;-69
2023/10/20 01:26:53;;;;;;;0.00;0.00;;;5.40;100.00;;;;;;4962264;28;20047;-69
2023/10/20 01:29:20;;;;;;;0.00;0.00;;;5.40;100.00;;;;;;4945523;28;20197;-69
2023/10/20 01:31:47;;;;;;;0.00;0.00;;;5.40;100.00;;;;;;4943594;28;20078;-69
2023/10/20 01:34:14;;;;;;;0.00;0.00;;;5.40;100.00;;;;;;4960527;28;20377;-69
2023/10/20 01:36:41;;;;;;;0.00;0.00;;;5.40;100.00;;;;;;4960859;28;20073;-69
2023/10/20 01:39:08;;;;;;;0.00;0.00;;;5.40;100.00;;;;;;4961999;28;20491;-69
2023/10/20 01:41:35;;;;;;;0.00;0.00;;;5.40;100.00;;;;;;4966415;28;20138;-69
2023/10/20 01:44:02;;;;;;;0.00;0.00;;;5.40;100.00;;;;;;4966405;28;20064;-70
2023/10/20 01:46:29;;;;;;;0.00;0.00;;;5.40;100.00;;;;;;4962543;28;20563;-69
2023/10/20 01:48:56;;;;;;;0.00;0.00;;;5.40;100.00;;;;;;4949763;28;20046;-69
2023/10/20 01:51:24;;;;;;;0.00;0.00;;;5.40;100.00;;;;;;4966689;28;20051;-69
2023/10/20 01:53:51;;;;;;;0.00;0.00;;;5.40;100.00;;;;;;4964807;28;20051;-69
2023/10/20 01:56:18;;;;;;;0.00;0.00;;;5.40;100.00;;;;;;4966550;28;20093;-69
2023/10/20 01:58:45;;;;;;;0.00;0.00;;;5.40;100.00;;;;;;4952633;28;20120;-69
2023/10/20 02:04:46;;;;;;;0.00;0.00;;;5.30;100.00;;;;;;4999551;28;20050;-69
2023/10/20 02:07:13;;;;;;;0.00;0.00;;;5.30;100.00;;;;;;5000574;28;20049;-69
2023/10/20 02:09:40;;;;;;;0.00;0.00;;;5.30;100.00;;;;;;5002487;28;20155;-69
2023/10/20 02:12:07;;;;;;;0.00;0.00;;;5.30;100.00;;;;;;5003890;28;20140;-69
2023/10/20 02:14:34;;;;;;;0.00;0.00;;;5.30;100.00;;;;;;5002855;28;20049;-69
2023/10/20 02:17:02;;;;;;;0.00;0.00;;;5.30;100.00;;;;;;5000602;28;20050;-69
2023/10/20 02:19:29;;;;;;;0.00;0.00;;;5.30;100.00;;;;;;5004054;28;20050;-69
2023/10/20 02:21:56;;;;;;;0.00;0.00;;;5.30;100.00;;;;;;5003725;28;20053;-69
2023/10/20 02:24:22;;;;;;;0.00;0.00;;;5.30;100.00;;;;;;5006695;28;20053;-69
2023/10/20 02:26:50;;;;;;;0.00;0.00;;;5.30;100.00;;;;;;5017567;28;20049;-69
2023/10/20 02:29:17;;;;;;;0.00;0.00;;;5.30;100.00;;;;;;5003602;28;20050;-69
2023/10/20 02:31:44;;;;;;;0.00;0.00;;;5.30;100.00;;;;;;5002074;28;20081;-69
2023/10/20 02:34:11;;;;;;;0.00;0.00;;;5.30;100.00;;;;;;5004689;28;20054;-69
2023/10/20 02:36:38;;;;;;;0.00;0.00;;;5.30;100.00;;;;;;5003512;28;20046;-69
2023/10/20 02:39:05;;;;;;;0.00;0.00;;;5.30;100.00;;;;;;5005457;28;20076;-69
2023/10/20 02:41:32;;;;;;;0.00;0.00;;;5.30;100.00;;;;;;5002660;28;20123;-69
2023/10/20 02:43:59;;;;;;;0.00;0.00;;;5.30;100.00;;;;;;5003476;28;20129;-69
2023/10/20 02:46:26;;;;;;;0.00;0.00;;;5.30;100.00;;;;;;5004228;28;20657;-69
2023/10/20 02:48:53;;;;;;;0.00;0.00;;;5.30;100.00;;;;;;5001883;28;20640;-69
2023/10/20 02:51:20;;;;;;;0.00;0.00;;;5.30;100.00;;;;;;5001430;28;20562;-69
2023/10/20 02:53:47;;;;;;;0.00;0.00;;;5.20;100.00;;;;;;4998699;28;20096;-69
2023/10/20 02:56:17;;;;;;;0.00;0.00;;;5.20;100.00;;;;;;5002826;28;20057;-69
2023/10/20 02:58:44;;;;;;;0.00;0.00;;;5.20;100.00;;;;;;5002574;28;20056;-69
2023/10/20 03:01:16;;;;;;;0.00;0.00;;;5.20;100.00;;;;;;4999732;28;20364;-69
2023/10/20 03:03:44;;;;;;;0.00;0.00;;;5.20;100.00;;;;;;4999282;28;20053;-69
2023/10/20 03:06:12;;;;;;;0.00;0.00;;;5.20;100.00;;;;;;5000970;28;20129;-69
2023/10/20 03:08:39;;;;;;;0.00;0.00;;;5.20;100.00;;;;;;5001385;28;20097;-69
2023/10/20 03:11:08;;;;;;;0.00;0.00;;;5.20;100.00;;;;;;5001437;28;20121;-69
2023/10/20 03:13:35;;;;;;;0.00;0.00;;;5.20;100.00;;;;;;5002620;28;20046;-75
2023/10/20 03:16:02;;;;;;;0.00;0.00;;;5.20;100.00;;;;;;5002485;28;20072;-75
2023/10/20 03:18:29;;;;;;;0.00;0.00;;;5.20;100.00;;;;;;5003395;28;20053;-75
2023/10/20 03:21:02;;;;;;;0.00;0.00;;;5.20;100.00;;;;;;5002455;28;20054;-75
2023/10/20 03:23:30;;;;;;;0.00;0.00;;;5.20;100.00;;;;;;5001051;28;20573;-75
2023/10/20 03:25:57;;;;;;;0.00;0.00;;;5.20;100.00;;;;;;5000201;28;20162;-75
2023/10/20 03:28:24;;;;;;;0.00;0.00;;;5.20;100.00;;;;;;5005980;28;20050;-75
2023/10/20 03:30:51;;;;;;;0.00;0.00;;;5.20;100.00;;;;;;5003047;28;20050;-75
2023/10/20 03:33:18;;;;;;;0.00;0.00;;;5.20;100.00;;;;;;4999098;28;20052;-75
2023/10/20 03:35:46;;;;;;;0.00;0.00;;;5.20;100.00;;;;;;5002534;28;20431;-75
2023/10/20 03:38:14;;;;;;;0.00;0.00;;;5.30;100.00;;;;;;5002674;28;20188;-74
2023/10/20 03:40:41;;;;;;;0.00;0.00;;;5.30;100.00;;;;;;5004150;28;20471;-74
2023/10/20 03:43:10;;;;;;;0.00;0.00;;;5.30;100.00;;;;;;5001472;28;20064;-76
2023/10/20 03:45:42;;;;;;;0.00;0.00;;;5.30;100.00;;;;;;5002596;28;20046;-75
2023/10/20 03:48:09;;;;;;;0.00;0.00;;;5.30;100.00;;;;;;4995883;28;20143;-75
2023/10/20 03:50:41;;;;;;;0.00;0.00;;;5.30;100.00;;;;;;5001099;28;20049;-75
2023/10/20 03:53:12;;;;;;;0.00;0.00;;;5.30;100.00;;;;;;5002840;28;20053;-75
2023/10/20 03:55:39;;;;;;;0.00;0.00;;;5.30;100.00;;;;;;5002401;23;20078;-75
2023/10/20 03:58:06;;;;;;;0.00;0.00;;;5.30;100.00;;;;;;4984017;28;20392;-75
2023/10/20 04:00:36;;;;;;;0.00;0.00;;;5.30;100.00;;;;;;4985519;28;20163;-75
2023/10/20 04:03:03;;;;;;;0.00;0.00;;;5.30;100.00;;;;;;4981152;28;20140;-75
2023/10/20 04:05:31;;;;;;;0.00;0.00;;;5.30;100.00;;;;;;4998777;28;20050;-75
2023/10/20 04:07:58;;;;;;;0.00;0.00;;;5.30;100.00;;;;;;4990004;28;20375;-76
2023/10/20 04:10:26;;;;;;;0.00;0.00;;;5.30;100.00;;;;;;5000886;28;20049;-75
2023/10/20 04:12:53;;;;;;;0.00;0.00;;;5.30;100.00;;;;;;5000393;28;20129;-74
2023/10/20 04:15:25;;;;;;;0.00;0.00;;;5.30;100.00;;;;;;4986559;28;20617;-74
2023/10/20 04:17:52;;;;;;;0.00;0.00;;;5.30;100.00;;;;;;4989925;28;20058;-74
2023/10/20 04:20:20;;;;;;;0.00;0.00;;;5.30;100.00;;;;;;4990256;28;20093;-73
2023/10/20 04:22:51;;;;;;;0.00;0.00;;;5.30;100.00;;;;;;4984380;28;20056;-73
2023/10/20 04:25:19;;;;;;;0.00;0.00;;;5.20;100.00;;;;;;4983372;28;20429;-73
2023/10/20 04:27:50;;;;;;;0.00;0.00;;;5.30;100.00;;;;;;4978928;28;20046;-73
2023/10/20 04:54:58;;;;;;;0.00;0.00;;;5.20;100.00;;;;;;4980370;28;20046;-74
2023/10/20 05:05:32;;;;;;;0.00;0.00;;;5.10;100.00;;;;;;4981087;28;20054;-69
2023/10/20 05:10:40;;;;;;;0.00;0.00;;;5.10;100.00;;;;;;4976763;28;20077;-69
2023/10/20 05:13:09;;;;;;;0.00;0.00;;;5.10;100.00;;;;;;4982315;28;20078;-69
2023/10/20 05:15:40;;;;;;;0.00;0.00;;;5.10;100.00;;;;;;4983410;28;20042;-69
2023/10/20 05:18:16;;;;;;;0.00;0.00;;;5.10;100.00;;;;;;4978400;28;20499;-69
2023/10/20 05:20:46;;;;;;;0.00;0.00;;;5.10;100.00;;;;;;4985842;28;20074;-69
2023/10/20 05:23:16;;;;;;;0.00;0.00;;;5.10;100.00;;;;;;4981829;28;22303;-69
2023/10/20 05:25:49;;;;;;;0.00;0.00;;;5.10;100.00;;;;;;4981252;28;20057;-68
2023/10/20 05:28:16;;;;;;;0.00;0.00;;;5.10;100.00;;;;;;4984784;28;20105;-68
2023/10/20 05:30:47;;;;;;;0.00;0.00;;;5.10;100.00;;;;;;4986913;28;20162;-68
2023/10/20 05:33:15;;;;;;;0.00;0.00;;;5.10;100.00;;;;;;4985185;28;20046;-68
2023/10/20 05:35:43;;;;;;;0.00;0.00;;;5.10;100.00;;;;;;4983720;28;20043;-68
2023/10/20 05:38:10;;;;;;;0.00;0.00;;;5.10;100.00;;;;;;4985086;28;20053;-68
2023/10/20 05:40:37;;;;;;;0.43;0.43;;;5.10;100.00;;;;;;4983619;28;20057;-68
2023/10/20 05:43:07;;;;;;;0.00;0.00;;;5.10;100.00;;;;;;4984014;28;20171;-68
2023/10/20 05:45:41;;;;;;;0.00;0.00;;;5.10;100.00;;;;;;5000535;28;20059;-68
2023/10/20 05:48:08;;;;;;;0.00;0.00;;;5.10;100.00;;;;;;4985827;28;20051;-68
2023/10/20 05:50:38;;;;;;;0.00;0.00;;;5.10;100.00;;;;;;4987445;28;20506;-69
2023/10/20 05:53:07;;;;;;;0.00;0.00;;;5.10;100.00;;;;;;4986072;28;20062;-68
2023/10/20 05:55:34;;;;;;;0.00;0.00;;;5.10;100.00;;;;;;4982083;28;20050;-69
2023/10/20 05:58:02;;;;;;;0.00;0.00;;;5.10;100.00;;;;;;4988216;28;20082;-69
2023/10/20 06:00:29;;;;;;;0.00;0.00;;;5.10;100.00;;;;;;4984960;28;20104;-69
2023/10/20 06:02:56;;;;;;;0.15;0.15;;;5.10;100.00;;;;;;4984221;28;20054;-69
2023/10/20 06:05:26;;;;;;;0.00;0.00;;;5.10;100.00;;;;;;4980987;28;20145;-69
2023/10/20 06:07:55;;;;;;;0.00;0.00;;;5.10;100.00;;;;;;4980271;28;20056;-69
2023/10/20 06:10:24;;;;;;;0.00;0.00;;;5.10;100.00;;;;;;4984401;28;20050;-69
2023/10/20 06:13:01;;;;;;;0.00;0.00;;;5.10;100.00;;;;;;4980744;28;20055;-68
2023/10/20 06:15:28;;;;;;;0.00;0.00;;;5.10;100.00;;;;;;4981940;28;20053;-69
2023/10/20 06:17:58;;;;;;;0.00;0.00;;;5.10;100.00;;;;;;4982070;28;20050;-68
2023/10/20 06:20:28;;;;;;;0.00;0.00;;;5.10;100.00;;;;;;4983723;28;20050;-69
2023/10/20 06:22:58;;;;;;;0.00;0.00;;;5.10;100.00;;;;;;4994275;23;20068;-69
2023/10/20 06:25:25;;;;;;;0.00;0.00;;;5.10;100.00;;;;;;4983452;28;20497;-69
2023/10/20 06:27:55;;;;;;;0.00;0.00;;;5.10;100.00;;;;;;4983304;28;20455;-73
2023/10/20 06:30:23;;;;;;;0.00;0.00;;;5.10;100.00;;;;;;4967678;28;20986;-73
2023/10/20 06:33:01;;;;;;;0.00;0.00;;;5.10;100.00;;;;;;4984513;28;20042;-73
2023/10/20 06:35:34;;;;;;;0.00;0.00;;;5.20;100.00;;;;;;4964867;28;20057;-73
2023/10/20 06:40:39;;;;;;;0.00;0.00;;;5.10;100.00;;;;;;4985154;28;20058;-74
2023/10/20 06:43:06;;;;;;;0.00;0.00;;;5.10;100.00;;;;;;4968495;28;20120;-74
2023/10/20 06:45:35;;;;;;;0.00;0.00;;;5.20;100.00;;;;;;4984183;28;20050;-74
2023/10/20 06:48:02;;;;;;;0.10;0.10;;;5.20;100.00;;;;;;4965017;28;20096;-75
2023/10/20 06:50:30;;;;;;;0.00;0.00;;;5.20;100.00;;;;;;4967645;28;20042;-74
2023/10/20 06:52:57;;;;;;;0.00;0.00;;;5.20;100.00;;;;;;4984218;28;20043;-75
2023/10/20 06:55:24;;;;;;;0.00;0.00;;;5.20;100.00;;;;;;4971526;28;20133;-74
2023/10/20 06:58:11;;;;;;;0.00;0.00;;;5.20;100.00;;;;;;4981910;28;20474;-75
2023/10/20 07:00:38;;;;;;;0.00;0.00;;;5.20;100.00;;;;;;4988044;28;20150;-73
2023/10/20 07:03:05;;;;;;;0.00;0.00;;;5.20;100.00;;;;;;4966799;28;20221;-73
2023/10/20 07:05:32;;;;;;;0.00;0.00;;;5.20;100.00;;;;;;4984699;28;20057;-73
2023/10/20 07:08:02;;;;;;;0.00;0.00;;;5.20;100.00;;;;;;4983803;28;20104;-73
2023/10/20 07:10:38;;;;;;;0.00;0.00;;;5.20;100.00;;;;;;4964418;28;20054;-74
2023/10/20 07:13:06;;;;;;;0.00;0.00;;;5.30;100.00;;;;;;4984886;28;20078;-74
2023/10/20 07:15:37;;;;;;;0.00;0.00;;;5.30;100.00;;;;;;4967281;28;20046;-74
2023/10/20 07:18:05;;;;;;;0.00;0.00;;;5.30;100.00;;;;;;4984630;28;20105;-74
2023/10/20 07:20:33;;;;;;;0.00;0.00;;;5.30;100.00;;;;;;4984758;28;20541;-74
2023/10/20 07:23:00;;;;;;;0.00;0.00;;;5.30;100.00;;;;;;4960251;28;20050;-74
2023/10/20 07:25:27;;;;;;;0.90;0.90;;;5.30;100.00;;;;;;4983175;28;20502;-76
2023/10/20 07:27:54;;;;;;;0.00;0.00;;;5.30;100.00;;;;;;4984713;28;20134;-75
2023/10/20 07:30:23;;;;;;;0.00;0.00;;;5.30;100.00;;;;;;4984898;28;20081;-74
2023/10/20 07:32:53;;;;;;;0.00;0.00;;;5.30;100.00;;;;;;4984549;28;20046;-73
2023/10/20 07:35:21;;;;;;;0.00;0.00;;;5.30;100.00;;;;;;4965766;28;20050;-74
2023/10/20 07:37:48;;;;;;;0.00;0.00;;;5.30;100.00;;;;;;4983792;28;20050;-74
2023/10/20 07:40:15;;;;;;;0.00;0.00;;;5.30;100.00;;;;;;4983167;28;20094;-74
2023/10/20 07:42:45;;;;;;;0.00;0.00;;;5.30;100.00;;;;;;4982974;28;20467;-74
2023/10/20 07:45:14;;;;;;;0.00;0.00;;;5.30;100.00;;;;;;4967226;28;20050;-74
2023/10/20 07:47:41;;;;;;;0.00;0.00;;;5.30;100.00;;;;;;4984875;28;20056;-74
2023/10/20 07:50:09;;;;;;;0.00;0.00;;;5.30;100.00;;;;;;4982344;28;20585;-74
2023/10/20 07:52:36;;;;;;;0.00;0.00;;;5.30;100.00;;;;;;4982060;28;20061;-75
2023/10/20 07:55:03;;;;;;;0.28;0.28;;;5.30;100.00;;;;;;4983086;28;20058;-74
2023/10/20 07:57:30;;;;;;;0.00;0.00;;;5.30;100.00;;;;;;4982491;28;20054;-75
2023/10/20 07:59:57;;;;;;;0.00;0.00;;;5.20;100.00;;;;;;4984003;28;20088;-74
2023/10/20 08:02:26;;;;;;;0.00;0.00;;;5.20;100.00;;;;;;4967109;28;20046;-74
2023/10/20 08:04:54;;;;;;;0.00;0.00;;;5.20;100.00;;;;;;4967296;28;20142;-74
2023/10/20 08:07:21;;;;;;;0.00;0.00;;;5.20;100.00;;;;;;4983497;28;20458;-74
2023/10/20 08:09:48;;;;;;;0.00;0.00;;;5.10;100.00;;;;;;4963580;28;20046;-74
2023/10/20 08:12:15;;;;;;;0.00;0.00;;;5.20;100.00;;;;;;4981264;28;20067;-74
2023/10/20 08:14:42;;;;;;;0.00;0.00;;;5.10;100.00;;;;;;4982811;28;20054;-74
2023/10/20 08:17:10;;;;;;;0.00;0.00;;;5.10;100.00;;;;;;4964290;28;20122;-74
2023/10/20 08:19:37;;;;;;;0.00;0.00;;;5.10;100.00;;;;;;4979563;28;20050;-77
2023/10/20 08:22:04;;;;;;;0.00;0.00;;;5.10;100.00;;;;;;4981899;28;20050;-78
2023/10/20 08:24:31;;;;;;;0.00;0.00;;;5.10;100.00;;;;;;4988305;28;20121;-77
2023/10/20 08:26:58;;;;;;;0.00;0.00;;;5.10;100.00;;;;;;4993032;28;20499;-76
2023/10/20 08:29:24;;;;;;;0.00;0.00;;;5.20;100.00;;;;;;4982310;28;20054;-76
2023/10/20 08:31:51;;;;;;;0.00;0.00;;;5.10;100.00;;;;;;4966620;28;20046;-73
2023/10/20 08:34:18;;;;;;;0.00;0.00;;;5.20;100.00;;;;;;4971804;28;20120;-73
2023/10/20 08:36:45;;;;;;;0.00;0.00;;;5.20;100.00;;;;;;4967737;28;20530;-73
2023/10/20 08:39:19;;;;;;;0.00;0.00;;;5.20;100.00;;;;;;4983597;28;20401;-74
2023/10/20 08:41:46;;;;;;;0.00;0.00;;;5.30;100.00;;;;;;4982683;28;20082;-74
2023/10/20 08:44:14;;;;;;;0.00;0.00;;;5.30;100.00;;;;;;4983566;28;20058;-75
2023/10/20 08:46:42;;;;;;;0.00;0.00;;;5.30;100.00;;;;;;4967170;28;20056;-76
2023/10/20 08:49:11;;;;;;;0.00;0.00;;;5.30;100.00;;;;;;4982347;28;20060;-76
2023/10/20 08:51:38;;;;;;;0.00;0.00;;;5.40;100.00;;;;;;4980019;28;20081;-76
2023/10/20 08:54:13;;;;;;;0.00;0.00;;;5.40;100.00;;;;;;4983876;28;20491;-76
2023/10/20 08:56:40;;;;;;;0.10;0.10;;;5.40;100.00;;;;;;4983564;28;20050;-76
2023/10/20 08:59:07;;;;;;;0.00;0.00;;;5.50;100.00;;;;;;4966360;28;20062;-76
2023/10/20 09:01:34;;;;;;;0.00;0.00;;;5.50;100.00;;;;;;4964329;28;20050;-75
2023/10/20 09:04:04;;;;;;;0.00;0.00;;;5.50;100.00;;;;;;4975671;28;20410;-77
2023/10/20 09:06:31;;;;;;;0.00;0.00;;;5.50;100.00;;;;;;4968287;28;20248;-76
2023/10/20 09:08:59;;;;;;;0.00;0.00;;;5.60;100.00;;;;;;4982245;28;20057;-76
2023/10/20 09:11:30;;;;;;;0.00;0.00;;;5.60;100.00;;;;;;4958446;28;20154;-76
2023/10/20 09:13:59;;;;;;;0.00;0.00;;;5.60;100.00;;;;;;4983082;28;20054;-75
2023/10/20 09:16:27;;;;;;;0.00;0.00;;;5.70;100.00;;;;;;4983319;28;20486;-75
2023/10/20 09:18:54;;;;;;;1.17;0.75;;;5.70;100.00;;;;;;4982599;28;20482;-76
2023/10/20 09:21:24;;;;;;;0.00;0.00;;;5.70;100.00;;;;;;4982973;28;20085;-76
2023/10/20 09:24:05;;;;;;;0.00;0.00;;;5.80;100.00;;;;;;4965380;28;20085;-76
2023/10/20 09:26:37;;;;;;;0.00;0.00;;;5.80;100.00;;;;;;4977243;28;20107;-76
2023/10/20 09:29:05;;;;;;;0.00;0.00;;;5.90;100.00;;;;;;4981329;28;20046;-76
2023/10/20 09:31:36;;;;;;;0.00;0.00;;;5.90;100.00;;;;;;4983129;28;20081;-75
2023/10/20 09:34:04;;;;;;;0.00;0.00;;;5.90;100.00;;;;;;4982289;28;20086;-76
2023/10/20 09:36:32;;;;;;;0.00;0.00;;;5.90;100.00;;;;;;4967526;28;20604;-76
2023/10/20 09:39:00;;;;;;;0.00;0.00;;;5.90;100.00;;;;;;4982456;28;20426;-75
2023/10/20 09:41:28;;;;;;;0.00;0.00;;;5.90;100.00;;;;;;4982926;28;20088;-75
2023/10/20 09:44:06;;;;;;;0.00;0.00;;;6.00;100.00;;;;;;4964106;28;20055;-77
2023/10/20 09:46:55;;;;;;;0.00;0.00;;;6.00;100.00;;;;;;4978458;28;20627;-74
2023/10/20 09:49:26;;;;;;;0.00;0.00;;;6.00;100.00;;;;;;4979903;28;20050;-74
2023/10/20 09:51:55;;;;;;;0.00;0.00;;;6.10;100.00;;;;;;4966063;28;20042;-74
2023/10/20 09:54:29;;;;;;;0.00;0.00;;;6.10;100.00;;;;;;4965731;28;20084;-73
2023/10/20 09:56:57;;;;;;;0.00;0.00;;;6.10;100.00;;;;;;4962999;28;20050;-74
2023/10/20 09:59:27;;;;;;;0.00;0.00;;;6.20;100.00;;;;;;4963943;28;20057;-74
2023/10/20 10:01:56;;;;;;;0.00;0.00;;;6.20;100.00;;;;;;4971127;28;20050;-75
2023/10/20 10:04:30;;;;;;;0.00;0.00;;;6.20;99.70;;;;;;4971172;28;20049;-75
2023/10/20 10:07:04;;;;;;;0.00;0.00;;;6.20;99.40;;;;;;4985351;28;20081;-75
2023/10/20 10:09:52;;;;;;;0.00;0.00;;;6.30;100.00;;;;;;4984327;28;20082;-74
2023/10/20 10:12:20;;;;;;;0.00;0.00;;;6.30;100.00;;;;;;4976007;28;20143;-75
2023/10/20 10:15:16;;;;;;;0.00;0.00;;;6.30;100.00;;;;;;4970613;28;20450;-75
2023/10/20 10:17:49;;;;;;;0.00;0.00;;;6.30;99.70;;;;;;4960486;28;20073;-74
2023/10/20 10:20:23;;;;;;;0.00;0.00;;;6.30;100.00;;;;;;4983952;28;20058;-75
2023/10/20 10:23:06;;;;;;;0.00;0.00;;;6.40;100.00;;;;;;4982237;28;20070;-75
2023/10/20 10:25:39;;;;;;;0.00;0.00;;;6.40;99.90;;;;;;4968635;28;20271;-75
2023/10/20 10:28:20;;;;;;;0.00;0.00;;;6.40;100.00;;;;;;4966434;28;20054;-75
2023/10/20 10:30:54;;;;;;;0.00;0.00;;;6.40;99.30;;;;;;4970276;28;20054;-74
2023/10/20 10:33:23;;;;;;;0.00;0.00;;;6.40;99.40;;;;;;4983925;28;20061;-74
2023/10/20 10:36:07;;;;;;;0.00;0.00;;;6.50;99.50;;;;;;4985697;28;20050;-75
2023/10/20 10:38:44;;;;;;;0.00;0.00;;;6.50;99.70;;;;;;4973766;28;20058;-74
2023/10/20 10:41:11;;;;;;;0.00;0.00;;;6.50;98.80;;;;;;4982229;28;20177;-74
2023/10/20 10:43:38;;;;;;;0.00;0.00;;;6.50;99.30;;;;;;4967368;28;20061;-75
2023/10/20 10:46:06;;;;;;;0.00;0.00;;;6.50;98.90;;;;;;4986097;28;20146;-74
2023/10/20 10:48:35;;;;;;;0.00;0.00;;;6.60;98.40;;;;;;4965986;28;20052;-74
2023/10/20 10:51:05;;;;;;;0.00;0.00;;;6.60;98.00;;;;;;4980663;28;20511;-74
2023/10/20 10:53:32;;;;;;;0.00;0.00;;;6.60;97.80;;;;;;4970641;28;20678;-75
2023/10/20 10:55:59;;;;;;;0.00;0.00;;;6.60;97.70;;;;;;4983092;28;20054;-75
2023/10/20 10:58:26;;;;;;;0.00;0.00;;;6.60;98.30;;;;;;4982771;28;20042;-74
2023/10/20 11:00:54;;;;;;;0.00;0.00;;;6.60;98.60;;;;;;4984818;28;20062;-74
2023/10/20 11:03:22;;;;;;;0.00;0.00;;;6.70;98.10;;;;;;4985259;28;20138;-76
2023/10/20 11:05:52;;;;;;;0.00;0.00;;;6.70;98.20;;;;;;4985142;28;20050;-76
2023/10/20 11:08:19;;;;;;;0.00;0.00;;;6.70;98.60;;;;;;4967129;28;20053;-75
2023/10/20 11:10:46;;;;;;;0.00;0.00;;;6.70;97.80;;;;;;4984351;28;20579;-76
2023/10/20 11:13:15;;;;;;;0.00;0.00;;;6.70;98.40;;;;;;4984193;28;20050;-76
2023/10/20 11:15:46;;;;;;;0.00;0.00;;;6.60;98.90;;;;;;4984876;28;20050;-75
2023/10/20 11:18:16;;;;;;;0.00;0.00;;;6.60;99.60;;;;;;4979847;28;20047;-74
2023/10/20 11:20:47;;;;;;;0.00;0.00;;;6.60;100.00;;;;;;4976374;28;20042;-74
2023/10/20 11:23:19;;;;;;;0.00;0.00;;;6.60;100.00;;;;;;4981499;28;21155;-74
2023/10/20 11:25:48;;;;;;;0.00;0.00;;;6.50;99.90;;;;;;4983062;28;20486;-74
2023/10/20 11:28:15;;;;;;;0.00;0.00;;;6.50;100.00;;;;;;4983424;28;20058;-74
2023/10/20 11:30:45;;;;;;;0.00;0.00;;;6.50;100.00;;;;;;4979105;28;20050;-74
2023/10/20 11:33:12;;;;;;;0.00;0.00;;;6.50;100.00;;;;;;4984740;28;20038;-77
2023/10/20 11:35:43;;;;;;;0.00;0.00;;;6.40;100.00;;;;;;4973642;28;20124;-78
2023/10/20 11:38:14;;;;;;;0.00;0.00;;;6.40;100.00;;;;;;4986462;28;20090;-79
2023/10/20 11:40:41;;;;;;;0.00;0.00;;;6.50;100.00;;;;;;4986421;28;20146;-78
2023/10/20 11:43:08;;;;;;;0.00;0.00;;;6.40;100.00;;;;;;4991840;28;20069;-77
2023/10/20 11:45:35;;;;;;;0.00;0.00;;;6.40;100.00;;;;;;4987343;28;20639;-78
2023/10/20 11:48:02;;;;;;;0.00;0.00;;;6.40;100.00;;;;;;4983938;28;20109;-77
2023/10/20 11:50:30;;;;;;;0.00;0.00;;;6.40;100.00;;;;;;4985716;28;20050;-77
2023/10/20 11:52:57;;;;;;;0.00;0.00;;;6.30;100.00;;;;;;4963895;28;20046;-77
2023/10/20 11:55:24;;;;;;;0.00;0.00;;;6.30;100.00;;;;;;4971673;28;20054;-77
2023/10/20 11:57:52;;;;;;;0.00;0.00;;;6.20;100.00;;;;;;4987377;28;20070;-77
2023/10/20 12:00:19;;;;;;;0.00;0.00;;;6.20;100.00;;;;;;4985806;28;20063;-75
2023/10/20 12:02:46;;;;;;;0.00;0.00;;;6.20;100.00;;;;;;4975704;28;20113;-75
2023/10/20 12:05:13;;;;;;;0.00;0.00;;;6.20;100.00;;;;;;4985101;28;20085;-79
2023/10/20 12:07:40;;;;;;;0.00;0.00;;;6.10;100.00;;;;;;4973152;28;20153;-76
2023/10/20 12:10:07;;;;;;;0.00;0.00;;;6.10;100.00;;;;;;4973036;28;20077;-76
2023/10/20 12:12:34;;;;;;;0.00;0.00;;;6.10;100.00;;;;;;4994466;22;20550;-76
2023/10/20 12:15:02;;;;;;;0.00;0.00;;;6.10;100.00;;;;;;4958471;28;20050;-77
2023/10/20 12:17:30;;;;;;;0.00;0.00;;;6.10;100.00;;;;;;4969003;28;20054;-76
2023/10/20 12:19:57;;;;;;;0.00;0.00;;;6.10;100.00;;;;;;4968376;28;20180;-75
2023/10/20 12:22:25;;;;;;;0.00;0.00;;;6.10;100.00;;;;;;4968509;28;20046;-75
2023/10/20 12:24:53;;;;;;;0.00;0.00;;;6.10;100.00;;;;;;4968510;28;20492;-75
2023/10/20 12:27:21;;;;;;;0.00;0.00;;;6.10;100.00;;;;;;4953439;28;20070;-77
2023/10/20 12:29:48;;;;;;;0.00;0.00;;;6.10;100.00;;;;;;4968014;28;20077;-77
2023/10/20 12:32:15;;;;;;;0.00;0.00;;;6.00;100.00;;;;;;4950617;28;20061;-77
2023/10/20 12:34:43;;;;;;;0.00;0.00;;;6.00;100.00;;;;;;4966097;28;20078;-75
2023/10/20 12:37:10;;;;;;;0.00;0.00;;;6.00;100.00;;;;;;4963246;28;20057;-77
2023/10/20 12:39:39;;;;;;;0.00;0.00;;;6.10;100.00;;;;;;4967619;28;20047;-75
2023/10/20 12:42:07;;;;;;;0.00;0.00;;;6.10;100.00;;;;;;4970131;28;20059;-76
2023/10/20 12:44:34;;;;;;;0.00;0.00;;;6.10;100.00;;;;;;4956262;28;20054;-78
2023/10/20 12:47:03;;;;;;;0.00;0.00;;;6.10;100.00;;;;;;4953315;28;20936;-77
2023/10/20 12:49:31;;;;;;;0.00;0.00;;;6.10;100.00;;;;;;4957802;28;20046;-76
2023/10/20 12:51:59;;;;;;;0.00;0.00;;;6.10;100.00;;;;;;4970673;28;20057;-76
2023/10/20 12:54:29;;;;;;;0.00;0.00;;;6.10;100.00;;;;;;4959268;28;20058;-77
2023/10/20 12:56:58;;;;;;;0.00;0.00;;;6.10;100.00;;;;;;4970865;28;20484;-79
2023/10/20 12:59:25;;;;;;;0.00;0.00;;;6.10;100.00;;;;;;4972982;28;20051;-79
2023/10/20 13:01:53;;;;;;;0.00;0.00;;;6.10;100.00;;;;;;4979176;28;20054;-79
2023/10/20 13:04:20;;;;;;;0.00;0.00;;;6.00;100.00;;;;;;4966228;28;20065;-80
2023/10/20 13:06:48;;;;;;;0.00;0.00;;;6.00;100.00;;;;;;4959071;28;20054;-79
2023/10/20 13:09:25;;;;;;;0.00;0.00;;;6.00;100.00;;;;;;4972102;28;20056;-79
2023/10/20 13:11:52;;;;;;;0.00;0.00;;;6.00;100.00;;;;;;4954330;28;20086;-83
2023/10/20 13:14:20;;;;;;;0.00;0.00;;;6.00;100.00;;;;;;4970956;28;20043;-78
2023/10/20 13:16:47;;;;;;;0.00;0.00;;;6.00;100.00;;;;;;4956240;28;20054;-76
2023/10/20 13:19:14;;;;;;;0.00;0.00;;;6.00;100.00;;;;;;4966224;28;20138;-76
2023/10/20 13:21:42;;;;;;;0.00;0.00;;;6.00;100.00;;;;;;4967615;28;20456;-76
2023/10/20 13:24:09;;;;;;;0.00;0.00;;;6.00;100.00;;;;;;4969492;28;20086;-76
2023/10/20 13:26:36;;;;;;;0.00;0.00;;;5.90;100.00;;;;;;4970537;28;20356;-76
2023/10/20 13:29:03;;;;;;;0.00;0.00;;;5.90;100.00;;;;;;4974147;28;20082;-76
2023/10/20 13:31:31;;;;;;;0.00;0.00;;;5.90;100.00;;;;;;4960214;28;20145;-76
2023/10/20 13:33:59;;;;;;;0.00;0.00;;;5.90;100.00;;;;;;4952697;28;20397;-76
2023/10/20 13:36:26;;;;;;;0.00;0.00;;;5.90;100.00;;;;;;4973145;28;20047;-76